createdAt,value
2019-06-20T00:00:35.599Z,57.40
2019-06-20T00:01:35.587Z,59.39
2019-06-20T00:02:35.587Z,61.02
2019-06-20T00:03:35.567Z,61.55
2019-06-20T00:04:35.559Z,62.77
2019-06-20T00:05:35.570Z,66.17
2019-06-20T00:06:35.538Z,69.96
2019-06-20T00:07:35.526Z,70.49
2019-06-20T00:08:35.528Z,71.39
2019-06-20T00:09:35.517Z,72.72
2019-06-20T00:10:35.497Z,74.16
2019-06-20T00:11:35.480Z,74.05
2019-06-20T00:12:35.471Z,73.86
2019-06-20T00:13:35.461Z,74.26
2019-06-20T00:14:35.451Z,75.59
2019-06-20T00:15:35.442Z,75.13
2019-06-20T00:16:35.426Z,76.23
2019-06-20T00:17:35.439Z,76.63
2019-06-20T00:18:35.413Z,76.83
2019-06-20T00:19:35.395Z,76.43
2019-06-20T00:20:35.382Z,77.67
2019-06-20T00:21:35.369Z,77.86
2019-06-20T00:22:35.365Z,78.56
2019-06-20T00:23:35.355Z,79.30
2019-06-20T00:24:35.345Z,79.30
2019-06-20T00:25:35.364Z,80.11
2019-06-20T00:26:35.322Z,80.11
2019-06-20T00:27:35.314Z,79.71
2019-06-20T00:28:35.297Z,79.21
2019-06-20T00:29:35.287Z,78.10
2019-06-20T00:30:35.279Z,79.21
2019-06-20T00:31:35.271Z,78.80
2019-06-20T00:32:35.255Z,80.21
2019-06-20T00:33:35.251Z,80.41
2019-06-20T00:34:35.235Z,80.51
2019-06-20T00:35:35.223Z,80.51
2019-06-20T00:36:35.219Z,80.80
2019-06-20T00:37:35.197Z,81.30
2019-06-20T00:38:35.193Z,81.41
2019-06-20T00:39:35.183Z,81.21
2019-06-20T00:40:35.191Z,81.21
2019-06-20T00:41:35.173Z,80.80
2019-06-20T00:42:35.151Z,80.71
2019-06-20T00:43:35.141Z,80.21
2019-06-20T00:44:35.164Z,81.30
2019-06-20T00:45:35.121Z,81.35
2019-06-20T00:46:35.111Z,81.01
2019-06-20T00:47:35.095Z,80.71
2019-06-20T00:48:35.089Z,81.30
2019-06-20T00:49:35.082Z,81.30
2019-06-20T00:50:35.069Z,81.21
2019-06-20T00:51:35.057Z,81.51
2019-06-20T00:52:35.047Z,82.45
2019-06-20T00:53:35.032Z,82.35
2019-06-20T00:54:35.036Z,83.25
2019-06-20T00:55:35.014Z,84.05
2019-06-20T00:56:35.001Z,83.35
2019-06-20T00:57:34.993Z,83.85
2019-06-20T00:58:34.987Z,83.25
2019-06-20T00:59:34.980Z,81.68
2019-06-20T01:00:34.957Z,81.18
2019-06-20T01:01:34.947Z,80.79
2019-06-20T01:02:34.934Z,81.18
2019-06-20T01:03:34.921Z,80.42
2019-06-20T01:04:34.917Z,79.52
2019-06-20T01:05:34.899Z,75.97
2019-06-20T01:06:34.911Z,74.57
2019-06-20T01:07:34.885Z,73.86
2019-06-20T01:08:34.871Z,72.53
2019-06-20T01:09:34.862Z,71.93
2019-06-20T01:10:34.868Z,71.69
2019-06-20T01:11:34.833Z,72.39
2019-06-20T01:12:34.826Z,72.19
2019-06-20T01:13:34.813Z,71.89
2019-06-20T01:14:34.811Z,71.09
2019-06-20T01:15:34.793Z,71.26
2019-06-20T01:16:34.795Z,69.76
2019-06-20T01:17:34.793Z,68.96
2019-06-20T01:18:34.772Z,69.36
2019-06-20T01:19:34.758Z,69.16
2019-06-20T01:20:34.743Z,69.76
2019-06-20T01:21:34.731Z,69.43
2019-06-20T01:22:34.717Z,69.46
2019-06-20T01:23:34.713Z,70.03
2019-06-20T01:24:34.705Z,69.46
2019-06-20T01:25:34.693Z,70.76
2019-06-20T01:26:34.680Z,71.16
2019-06-20T01:27:34.663Z,71.16
2019-06-20T01:28:34.653Z,71.06
2019-06-20T01:29:34.643Z,71.06
2019-06-20T01:30:34.631Z,71.06
2019-06-20T01:31:34.620Z,71.76
2019-06-20T01:32:34.606Z,72.36
2019-06-20T01:33:34.599Z,71.96
2019-06-20T01:34:34.611Z,71.80
2019-06-20T01:35:34.581Z,71.89
2019-06-20T01:36:34.570Z,71.30
2019-06-20T01:37:34.555Z,71.36
2019-06-20T01:38:34.541Z,71.56
2019-06-20T01:39:34.533Z,71.76
2019-06-20T01:40:34.525Z,71.36
2019-06-20T01:41:34.517Z,71.50
2019-06-20T01:42:34.497Z,71.46
2019-06-20T01:43:49.419Z,72.06
2019-06-20T01:44:35.473Z,71.86
2019-06-20T01:45:34.462Z,72.69
2019-06-20T01:46:34.453Z,73.39
2019-06-20T01:47:34.446Z,73.30
2019-06-20T01:48:34.437Z,73.43
2019-06-20T01:49:34.419Z,73.60
2019-06-20T01:50:34.413Z,73.60
2019-06-20T01:51:34.579Z,73.39
2019-06-20T01:52:34.407Z,73.70
2019-06-20T01:53:34.388Z,73.70
2019-06-20T01:54:34.374Z,72.60
2019-06-20T01:55:34.356Z,72.39
2019-06-20T01:56:34.350Z,72.30
2019-06-20T01:57:34.337Z,72.39
2019-06-20T01:58:34.324Z,72.39
2019-06-20T01:59:34.318Z,72.73
2019-06-20T02:00:34.311Z,72.60
2019-06-20T02:01:34.292Z,72.80
2019-06-20T02:02:34.326Z,72.50
2019-06-20T02:03:34.272Z,72.89
2019-06-20T02:04:34.261Z,73.13
2019-06-20T02:05:34.251Z,73.23
2019-06-20T02:06:34.235Z,72.93
2019-06-20T02:07:34.232Z,73.33
2019-06-20T02:08:34.212Z,73.30
2019-06-20T02:09:34.205Z,73.43
2019-06-20T02:10:34.194Z,73.33
2019-06-20T02:11:34.220Z,73.93
2019-06-20T02:12:34.177Z,74.33
2019-06-20T02:13:34.164Z,73.43
2019-06-20T02:14:34.157Z,73.83
2019-06-20T02:15:34.144Z,74.33
2019-06-20T02:16:34.157Z,73.73
2019-06-20T02:17:34.117Z,73.93
2019-06-20T02:18:34.121Z,73.73
2019-06-20T02:19:34.098Z,74.03
2019-06-20T02:20:34.084Z,74.07
2019-06-20T02:21:34.069Z,74.47
2019-06-20T02:22:34.063Z,74.37
2019-06-20T02:23:34.051Z,74.47
2019-06-20T02:24:34.044Z,74.27
2019-06-20T02:25:34.030Z,74.27
2019-06-20T02:26:34.040Z,74.27
2019-06-20T02:27:34.005Z,74.97
2019-06-20T02:28:33.998Z,75.07
2019-06-20T02:29:33.987Z,75.37
2019-06-20T02:30:34.066Z,75.81
2019-06-20T02:31:34.047Z,75.71
2019-06-20T02:32:33.957Z,75.60
2019-06-20T02:33:33.947Z,76.07
2019-06-20T02:34:33.942Z,76.21
2019-06-20T02:35:33.925Z,76.11
2019-06-20T02:36:33.908Z,76.31
2019-06-20T02:37:33.904Z,76.21
2019-06-20T02:38:33.890Z,76.54
2019-06-20T02:39:33.880Z,76.65
2019-06-20T02:40:33.867Z,76.54
2019-06-20T02:41:33.862Z,76.65
2019-06-20T02:42:33.849Z,77.05
2019-06-20T02:43:33.831Z,77.15
2019-06-20T02:44:33.822Z,77.35
2019-06-20T02:45:33.812Z,77.95
2019-06-20T02:46:33.801Z,77.15
2019-06-20T02:47:33.794Z,77.95
2019-06-20T02:48:33.783Z,77.65
2019-06-20T02:49:33.766Z,77.28
2019-06-20T02:50:33.757Z,78.09
2019-06-20T02:51:33.747Z,77.89
2019-06-20T02:52:33.759Z,78.19
2019-06-20T02:53:33.731Z,78.25
2019-06-20T02:54:33.719Z,78.29
2019-06-20T02:55:33.697Z,78.59
2019-06-20T02:56:33.693Z,78.49
2019-06-20T02:57:33.676Z,78.39
2019-06-20T02:58:33.680Z,78.59
2019-06-20T02:59:33.663Z,78.19
2019-06-20T03:00:33.714Z,78.69
2019-06-20T03:01:33.638Z,79.09
2019-06-20T03:02:33.629Z,79.63
2019-06-20T03:03:33.619Z,79.73
2019-06-20T03:04:33.611Z,79.93
2019-06-20T03:05:33.650Z,79.93
2019-06-20T03:06:33.591Z,80.63
2019-06-20T03:07:33.571Z,80.54
2019-06-20T03:08:33.561Z,81.04
2019-06-20T03:09:33.550Z,81.07
2019-06-20T03:10:33.543Z,81.07
2019-06-20T03:11:33.535Z,81.48
2019-06-20T03:12:33.518Z,81.38
2019-06-20T03:13:33.513Z,80.88
2019-06-20T03:14:45.144Z,81.34
2019-06-20T03:15:34.485Z,81.04
2019-06-20T03:16:33.489Z,80.94
2019-06-20T03:17:33.467Z,81.34
2019-06-20T03:18:33.474Z,80.98
2019-06-20T03:19:33.449Z,80.88
2019-06-20T03:20:33.444Z,80.63
2019-06-20T03:21:33.423Z,80.63
2019-06-20T03:22:33.418Z,80.83
2019-06-20T03:23:33.405Z,80.98
2019-06-20T03:24:33.393Z,81.48
2019-06-20T03:25:33.383Z,81.48
2019-06-20T03:26:33.375Z,81.78
2019-06-20T03:27:33.359Z,81.68
2019-06-20T03:28:33.355Z,81.48
2019-06-20T03:29:33.345Z,81.44
2019-06-20T03:30:33.338Z,81.48
2019-06-20T03:31:33.318Z,81.27
2019-06-20T03:32:33.312Z,81.64
2019-06-20T03:33:33.304Z,81.54
2019-06-20T03:34:33.295Z,81.64
2019-06-20T03:35:33.278Z,81.04
2019-06-20T03:36:33.276Z,81.24
2019-06-20T03:37:33.256Z,81.24
2019-06-20T03:38:33.242Z,81.04
2019-06-20T03:39:33.233Z,81.14
2019-06-20T03:40:33.223Z,81.44
2019-06-20T03:41:33.212Z,81.84
2019-06-20T03:42:33.203Z,82.04
2019-06-20T03:43:33.195Z,81.44
2019-06-20T03:44:33.177Z,81.34
2019-06-20T03:45:33.165Z,81.54
2019-06-20T03:46:33.160Z,81.64
2019-06-20T03:47:33.145Z,81.64
2019-06-20T03:48:33.137Z,81.90
2019-06-20T03:49:33.127Z,81.24
2019-06-20T03:50:33.122Z,81.04
2019-06-20T03:51:33.125Z,81.64
2019-06-20T03:52:33.097Z,81.34
2019-06-20T03:53:33.085Z,81.74
2019-06-20T03:54:33.076Z,81.94
2019-06-20T03:55:33.059Z,81.90
2019-06-20T03:56:33.047Z,81.70
2019-06-20T03:57:33.046Z,81.40
2019-06-20T03:58:33.066Z,81.30
2019-06-20T03:59:33.024Z,81.10
2019-06-20T04:00:33.005Z,81.30
2019-06-20T04:01:32.997Z,81.16
2019-06-20T04:02:32.989Z,81.50
2019-06-20T04:03:32.978Z,81.60
2019-06-20T04:04:32.967Z,81.90
2019-06-20T04:05:32.955Z,82.64
2019-06-20T04:06:32.947Z,82.64
2019-06-20T04:07:32.941Z,82.75
2019-06-20T04:08:32.924Z,82.45
2019-06-20T04:09:32.911Z,82.75
2019-06-20T04:10:32.900Z,81.34
2019-06-20T04:11:32.888Z,81.14
2019-06-20T04:12:32.876Z,81.54
2019-06-20T04:13:32.872Z,81.54
2019-06-20T04:14:32.857Z,81.74
2019-06-20T04:15:32.843Z,81.04
2019-06-20T04:16:32.839Z,81.00
2019-06-20T04:17:32.833Z,79.99
2019-06-20T04:18:32.818Z,79.80
2019-06-20T04:19:32.814Z,79.49
2019-06-20T04:20:32.797Z,79.36
2019-06-20T04:21:32.787Z,79.80
2019-06-20T04:22:32.864Z,80.36
2019-06-20T04:23:32.761Z,80.06
2019-06-20T04:24:32.767Z,80.70
2019-06-20T04:25:32.740Z,80.40
2019-06-20T04:26:32.738Z,80.70
2019-06-20T04:27:32.724Z,80.56
2019-06-20T04:28:32.711Z,79.86
2019-06-20T04:29:35.795Z,79.86
2019-06-20T04:30:32.689Z,79.32
2019-06-20T04:31:32.675Z,79.12
2019-06-20T04:32:32.667Z,79.16
2019-06-20T04:33:32.651Z,79.36
2019-06-20T04:34:32.646Z,78.61
2019-06-20T04:35:32.633Z,79.62
2019-06-20T04:36:32.617Z,78.66
2019-06-20T04:37:32.620Z,79.52
2019-06-20T04:38:32.602Z,79.46
2019-06-20T04:39:32.587Z,78.72
2019-06-20T04:40:32.576Z,78.72
2019-06-20T04:41:32.565Z,78.28
2019-06-20T04:42:32.557Z,77.98
2019-06-20T04:43:32.541Z,77.87
2019-06-20T04:44:32.536Z,77.64
2019-06-20T04:45:35.472Z,77.64
2019-06-20T04:46:32.531Z,77.04
2019-06-20T04:47:32.498Z,76.64
2019-06-20T04:48:32.490Z,76.43
2019-06-20T04:49:32.489Z,77.84
2019-06-20T04:50:32.468Z,77.54
2019-06-20T04:51:32.452Z,77.64
2019-06-20T04:52:32.453Z,77.84
2019-06-20T04:53:32.439Z,77.84
2019-06-20T04:54:32.427Z,76.94
2019-06-20T04:55:32.411Z,77.00
2019-06-20T04:56:32.401Z,76.50
2019-06-20T04:57:32.408Z,76.50
2019-06-20T04:58:32.382Z,75.87
2019-06-20T04:59:32.371Z,75.30
2019-06-20T05:00:32.369Z,75.46
2019-06-20T05:01:32.351Z,75.76
2019-06-20T05:02:32.337Z,75.67
2019-06-20T05:03:32.343Z,75.33
2019-06-20T05:04:32.314Z,75.43
2019-06-20T05:05:32.301Z,74.93
2019-06-20T05:06:32.293Z,74.03
2019-06-20T05:07:32.283Z,75.23
2019-06-20T05:08:32.269Z,75.23
2019-06-20T05:09:32.277Z,75.37
2019-06-20T05:10:32.248Z,75.46
2019-06-20T05:11:32.242Z,75.76
2019-06-20T05:12:32.227Z,74.03
2019-06-20T05:13:32.224Z,73.86
2019-06-20T05:14:32.205Z,73.83
2019-06-20T05:15:32.191Z,73.53
2019-06-20T05:16:32.193Z,74.22
2019-06-20T05:17:32.173Z,74.53
2019-06-20T05:18:32.156Z,74.53
2019-06-20T05:19:32.149Z,73.63
2019-06-20T05:20:32.145Z,74.03
2019-06-20T05:21:32.125Z,74.43
2019-06-20T05:22:32.118Z,74.19
2019-06-20T05:23:32.119Z,73.79
2019-06-20T05:24:32.098Z,74.19
2019-06-20T05:25:32.090Z,73.49
2019-06-20T05:26:32.076Z,74.13
2019-06-20T05:27:32.067Z,74.33
2019-06-20T05:28:32.054Z,73.53
2019-06-20T05:29:32.056Z,74.03
2019-06-20T05:30:32.029Z,73.63
2019-06-20T05:31:32.025Z,73.93
2019-06-20T05:32:32.013Z,74.13
2019-06-20T05:33:32.010Z,73.83
2019-06-20T05:34:31.997Z,74.33
2019-06-20T05:35:31.983Z,74.53
2019-06-20T05:36:31.968Z,74.13
2019-06-20T05:37:31.957Z,73.79
2019-06-20T05:38:31.951Z,73.53
2019-06-20T05:39:31.956Z,74.33
2019-06-20T05:40:31.927Z,75.13
2019-06-20T05:41:31.922Z,75.33
2019-06-20T05:42:31.905Z,75.83
2019-06-20T05:43:31.893Z,76.03
2019-06-20T05:44:31.883Z,76.43
2019-06-20T05:45:31.930Z,76.43
2019-06-20T05:46:31.856Z,76.33
2019-06-20T05:47:31.850Z,77.23
2019-06-20T05:48:31.843Z,77.79
2019-06-20T05:49:31.829Z,77.99
2019-06-20T05:50:31.819Z,77.39
2019-06-20T05:51:31.806Z,77.99
2019-06-20T05:52:31.821Z,77.99
2019-06-20T05:53:31.792Z,79.69
2019-06-20T05:54:31.774Z,79.09
2019-06-20T05:55:31.771Z,78.43
2019-06-20T05:56:31.751Z,79.13
2019-06-20T05:57:31.743Z,79.73
2019-06-20T05:58:31.725Z,80.33
2019-06-20T05:59:31.720Z,79.33
2019-06-20T06:00:31.709Z,79.36
2019-06-20T06:01:31.701Z,79.57
2019-06-20T06:02:31.727Z,79.17
2019-06-20T06:03:31.683Z,78.86
2019-06-20T06:04:31.670Z,79.36
2019-06-20T06:05:31.655Z,79.57
2019-06-20T06:06:31.641Z,79.86
2019-06-20T06:07:31.639Z,79.86
2019-06-20T06:08:31.617Z,79.77
2019-06-20T06:09:31.616Z,79.27
2019-06-20T06:10:31.604Z,81.30
2019-06-20T06:11:31.592Z,80.80
2019-06-20T06:12:31.587Z,81.41
2019-06-20T06:13:31.575Z,81.11
2019-06-20T06:14:31.670Z,81.61
2019-06-20T06:15:31.560Z,81.74
2019-06-20T06:16:31.539Z,82.55
2019-06-20T06:17:31.529Z,82.65
2019-06-20T06:18:31.531Z,83.75
2019-06-20T06:19:31.508Z,84.35
2019-06-20T06:20:31.491Z,84.35
2019-06-20T06:21:31.487Z,85.05
2019-06-20T06:22:31.478Z,85.30
2019-06-20T06:23:31.463Z,84.39
2019-06-20T06:24:31.451Z,85.53
2019-06-20T06:25:31.458Z,86.33
2019-06-20T06:26:31.427Z,86.54
2019-06-20T06:27:31.446Z,86.98
2019-06-20T06:28:31.412Z,88.18
2019-06-20T06:29:31.399Z,88.48
2019-06-20T06:30:31.385Z,88.93
2019-06-20T06:31:31.367Z,87.82
2019-06-20T06:32:40.124Z,88.77
2019-06-20T06:33:32.362Z,89.67
2019-06-20T06:34:31.347Z,89.47
2019-06-20T06:35:31.334Z,89.98
2019-06-20T06:36:31.317Z,89.47
2019-06-20T06:37:31.305Z,90.17
2019-06-20T06:38:31.309Z,90.42
2019-06-20T06:39:31.287Z,89.78
2019-06-20T06:40:31.284Z,89.37
2019-06-20T06:41:31.266Z,88.51
2019-06-20T06:42:31.252Z,88.47
2019-06-20T06:43:31.246Z,88.71
2019-06-20T06:44:31.898Z,88.97
2019-06-20T06:45:31.222Z,89.11
2019-06-20T06:46:43.570Z,89.82
2019-06-20T06:47:32.194Z,89.22
2019-06-20T06:48:31.203Z,89.82
2019-06-20T06:49:31.179Z,89.72
2019-06-20T06:50:31.182Z,89.62
2019-06-20T06:51:31.179Z,89.62
2019-06-20T06:52:31.143Z,89.92
2019-06-20T06:53:31.142Z,89.22
2019-06-20T06:54:31.131Z,89.82
2019-06-20T06:55:31.122Z,89.42
2019-06-20T06:56:31.117Z,89.96
2019-06-20T06:57:31.099Z,90.12
2019-06-20T06:58:31.085Z,89.92
2019-06-20T06:59:31.077Z,90.02
2019-06-20T07:00:31.059Z,89.92
2019-06-20T07:01:31.053Z,89.72
2019-06-20T07:02:31.079Z,89.82
2019-06-20T07:03:31.034Z,90.12
2019-06-20T07:04:31.024Z,89.82
2019-06-20T07:05:31.007Z,89.62
2019-06-20T07:06:30.996Z,90.02
2019-06-20T07:07:30.985Z,89.92
2019-06-20T07:08:30.976Z,89.98
2019-06-20T07:09:30.968Z,90.08
2019-06-20T07:10:30.960Z,90.53
2019-06-20T07:11:30.958Z,90.03
2019-06-20T07:12:30.936Z,89.94
2019-06-20T07:13:30.923Z,90.53
2019-06-20T07:14:30.954Z,89.73
2019-06-20T07:15:30.900Z,90.03
2019-06-20T07:16:30.947Z,91.03
2019-06-20T07:17:30.885Z,91.84
2019-06-20T07:18:30.876Z,92.04
2019-06-20T07:19:30.861Z,91.14
2019-06-20T07:20:30.849Z,90.23
2019-06-20T07:21:30.845Z,89.89
2019-06-20T07:22:30.833Z,89.94
2019-06-20T07:23:30.814Z,90.03
2019-06-20T07:24:30.809Z,89.79
2019-06-20T07:25:30.791Z,89.69
2019-06-20T07:26:30.788Z,90.13
2019-06-20T07:27:30.793Z,90.03
2019-06-20T07:28:30.773Z,90.03
2019-06-20T07:29:30.760Z,90.94
2019-06-20T07:30:30.744Z,90.17
2019-06-20T07:31:30.733Z,90.13
2019-06-20T07:32:30.719Z,90.94
2019-06-20T07:33:30.717Z,89.73
2019-06-20T07:34:30.703Z,90.03
2019-06-20T07:35:30.705Z,89.99
2019-06-20T07:36:30.678Z,89.69
2019-06-20T07:37:30.670Z,89.39
2019-06-20T07:38:30.659Z,89.18
2019-06-20T07:39:30.651Z,88.99
2019-06-20T07:40:30.647Z,89.39
2019-06-20T07:41:30.629Z,91.15
2019-06-20T07:42:30.622Z,90.75
2019-06-20T07:43:30.599Z,90.55
2019-06-20T07:44:30.591Z,89.90
2019-06-20T07:45:30.578Z,88.40
2019-06-20T07:46:30.576Z,88.04
2019-06-20T07:47:30.560Z,88.14
2019-06-20T07:48:30.546Z,87.74
2019-06-20T07:49:30.537Z,88.34
2019-06-20T07:50:30.538Z,87.70
2019-06-20T07:51:30.515Z,87.70
2019-06-20T07:52:30.512Z,88.20
2019-06-20T07:53:30.493Z,88.50
2019-06-20T07:54:30.478Z,87.00
2019-06-20T07:55:30.656Z,87.20
2019-06-20T07:56:30.459Z,87.90
2019-06-20T07:57:30.450Z,87.70
2019-06-20T07:58:30.495Z,86.90
2019-06-20T07:59:30.423Z,86.80
2019-06-20T08:00:30.409Z,86.90
2019-06-20T08:01:30.404Z,87.36
2019-06-20T08:02:30.397Z,86.96
2019-06-20T08:03:30.384Z,86.16
2019-06-20T08:04:30.369Z,85.75
2019-06-20T08:05:30.371Z,86.25
2019-06-20T08:06:30.349Z,87.26
2019-06-20T08:07:30.352Z,87.66
2019-06-20T08:08:30.418Z,87.26
2019-06-20T08:09:44.490Z,87.46
2019-06-20T08:10:31.313Z,86.71
2019-06-20T08:11:30.298Z,86.76
2019-06-20T08:12:30.287Z,86.01
2019-06-20T08:13:30.279Z,86.01
2019-06-20T08:14:30.264Z,85.71
2019-06-20T08:15:30.260Z,86.11
2019-06-20T08:16:30.241Z,86.68
2019-06-20T08:17:35.421Z,87.07
2019-06-20T08:18:31.223Z,84.87
2019-06-20T08:19:30.210Z,85.77
2019-06-20T08:20:30.246Z,85.57
2019-06-20T08:21:30.183Z,85.77
2019-06-20T08:22:30.181Z,85.68
2019-06-20T08:23:30.161Z,83.97
2019-06-20T08:24:30.157Z,83.43
2019-06-20T08:25:30.149Z,83.93
2019-06-20T08:26:30.149Z,83.73
2019-06-20T08:27:30.121Z,82.83
2019-06-20T08:28:30.110Z,83.03
2019-06-20T08:29:30.116Z,84.13
2019-06-20T08:30:30.111Z,83.03
2019-06-20T08:31:30.077Z,83.19
2019-06-20T08:32:30.097Z,82.29
2019-06-20T08:33:30.056Z,82.19
2019-06-20T08:34:30.046Z,82.79
2019-06-20T08:35:30.072Z,82.25
2019-06-20T08:36:30.128Z,81.25
2019-06-20T08:37:30.019Z,81.35
2019-06-20T08:38:30.014Z,82.01
2019-06-20T08:39:30.008Z,83.01
2019-06-20T08:40:29.988Z,81.18
2019-06-20T08:41:30.250Z,81.18
2019-06-20T08:42:29.965Z,80.83
2019-06-20T08:43:29.946Z,81.40
2019-06-20T08:44:29.938Z,81.26
2019-06-20T08:45:29.925Z,80.32
2019-06-20T08:46:29.921Z,77.33
2019-06-20T08:47:29.901Z,76.34
2019-06-20T08:48:29.892Z,75.54
2019-06-20T08:49:29.901Z,77.50
2019-06-20T08:50:29.872Z,76.56
2019-06-20T08:51:29.863Z,75.96
2019-06-20T08:52:29.849Z,75.33
2019-06-20T08:53:29.853Z,75.33
2019-06-20T08:54:29.828Z,74.90
2019-06-20T08:55:29.828Z,72.51
2019-06-20T08:56:29.812Z,71.75
2019-06-20T08:57:29.801Z,73.24
2019-06-20T08:58:29.791Z,72.44
2019-06-20T08:59:29.846Z,72.34
2019-06-20T09:00:29.772Z,71.92
2019-06-20T09:01:29.906Z,72.52
2019-06-20T09:02:29.753Z,72.31
2019-06-20T09:03:29.740Z,73.01
2019-06-20T09:04:29.719Z,73.55
2019-06-20T09:05:30.819Z,74.04
2019-06-20T09:06:29.698Z,74.68
2019-06-20T09:07:29.686Z,74.48
2019-06-20T09:08:29.684Z,73.48
2019-06-20T09:09:29.671Z,73.74
2019-06-20T09:10:29.663Z,73.74
2019-06-20T09:11:29.653Z,73.44
2019-06-20T09:12:29.645Z,73.44
2019-06-20T09:13:29.626Z,74.15
2019-06-20T09:14:29.618Z,74.18
2019-06-20T09:15:29.621Z,73.18
2019-06-20T09:16:29.598Z,73.78
2019-06-20T09:17:29.598Z,72.28
2019-06-20T09:18:29.575Z,73.48
2019-06-20T09:19:29.566Z,73.18
2019-06-20T09:20:29.557Z,72.75
2019-06-20T09:21:29.537Z,73.05
2019-06-20T09:22:29.533Z,73.74
2019-06-20T09:23:29.558Z,73.61
2019-06-20T09:24:29.517Z,74.30
2019-06-20T09:25:29.522Z,73.91
2019-06-20T09:26:29.481Z,74.67
2019-06-20T09:27:29.484Z,73.38
2019-06-20T09:28:29.467Z,73.08
2019-06-20T09:29:41.406Z,72.88
2019-06-20T09:30:30.456Z,72.25
2019-06-20T09:31:29.423Z,72.05
2019-06-20T09:32:29.424Z,71.12
2019-06-20T09:33:29.411Z,70.12
2019-06-20T09:34:29.417Z,70.22
2019-06-20T09:35:29.392Z,71.38
2019-06-20T09:36:29.371Z,69.69
2019-06-20T09:37:29.365Z,68.13
2019-06-20T09:38:29.359Z,69.53
2019-06-20T09:39:29.353Z,70.22
2019-06-20T09:40:29.328Z,70.82
2019-06-20T09:41:29.359Z,70.22
2019-06-20T09:42:29.310Z,70.98
2019-06-20T09:43:29.300Z,68.80
2019-06-20T09:44:29.290Z,68.73
2019-06-20T09:45:29.278Z,69.06
2019-06-20T09:46:29.273Z,70.95
2019-06-20T09:47:29.256Z,72.74
2019-06-20T09:48:29.245Z,69.56
2019-06-20T09:49:29.237Z,70.12
2019-06-20T09:50:29.226Z,70.52
2019-06-20T09:51:29.217Z,70.89
2019-06-20T09:52:29.205Z,69.99
2019-06-20T09:53:29.197Z,69.36
2019-06-20T09:54:29.182Z,68.57
2019-06-20T09:55:29.176Z,69.03
2019-06-20T09:56:29.163Z,67.74
2019-06-20T09:57:29.158Z,64.95
2019-06-20T09:58:29.148Z,66.15
2019-06-20T09:59:29.152Z,66.21
2019-06-20T10:00:29.123Z,67.40
2019-06-20T10:01:29.142Z,69.39
2019-06-20T10:02:29.101Z,68.46
2019-06-20T10:03:29.097Z,67.97
2019-06-20T10:04:29.078Z,67.27
2019-06-20T10:05:29.066Z,66.38
2019-06-20T10:06:29.065Z,68.70
2019-06-20T10:07:29.045Z,68.70
2019-06-20T10:08:29.038Z,68.43
2019-06-20T10:09:29.034Z,69.43
2019-06-20T10:10:29.015Z,69.43
2019-06-20T10:11:28.997Z,71.28
2019-06-20T10:12:28.996Z,70.59
2019-06-20T10:13:32.399Z,71.05
2019-06-20T10:14:28.989Z,67.34
2019-06-20T10:15:28.958Z,66.64
2019-06-20T10:16:42.441Z,66.15
2019-06-20T10:17:29.936Z,67.74
2019-06-20T10:18:28.939Z,65.85
2019-06-20T10:19:28.918Z,64.76
2019-06-20T10:20:28.911Z,65.39
2019-06-20T10:21:28.905Z,65.99
2019-06-20T10:22:28.885Z,65.75
2019-06-20T10:23:28.880Z,62.98
2019-06-20T10:24:28.868Z,62.88
2019-06-20T10:25:28.854Z,63.87
2019-06-20T10:26:28.846Z,63.67
2019-06-20T10:27:28.833Z,62.65
2019-06-20T10:28:28.837Z,63.84
2019-06-20T10:29:28.815Z,62.85
2019-06-20T10:30:28.806Z,63.02
2019-06-20T10:31:28.796Z,63.21
2019-06-20T10:32:28.782Z,62.88
2019-06-20T10:33:28.792Z,62.85
2019-06-20T10:34:31.121Z,61.18
2019-06-20T10:35:28.748Z,61.27
2019-06-20T10:36:28.742Z,60.61
2019-06-20T10:37:28.746Z,60.91
2019-06-20T10:38:28.718Z,59.08
2019-06-20T10:39:28.707Z,60.77
2019-06-20T10:40:28.696Z,60.40
2019-06-20T10:41:28.687Z,62.47
2019-06-20T10:42:28.684Z,64.00
2019-06-20T10:43:28.663Z,64.49
2019-06-20T10:44:28.649Z,64.98
2019-06-20T10:45:28.641Z,64.89
2019-06-20T10:46:28.634Z,64.46
2019-06-20T10:47:33.712Z,63.04
2019-06-20T10:48:29.613Z,61.72
2019-06-20T10:49:28.595Z,62.35
2019-06-20T10:50:28.590Z,60.74
2019-06-20T10:51:28.582Z,61.33
2019-06-20T10:52:28.572Z,61.21
2019-06-20T10:53:28.560Z,60.28
2019-06-20T10:54:28.545Z,58.97
2019-06-20T10:55:28.532Z,58.97
2019-06-20T10:56:28.527Z,60.75
2019-06-20T10:57:28.516Z,60.62
2019-06-20T10:58:28.504Z,59.00
2019-06-20T10:59:28.491Z,59.63
2019-06-20T11:00:32.023Z,56.29
2019-06-20T11:01:28.479Z,53.89
2019-06-20T11:02:28.486Z,54.40
2019-06-20T11:03:28.452Z,51.67
2019-06-20T11:04:28.439Z,51.25
2019-06-20T11:05:28.431Z,49.95
2019-06-20T11:06:28.416Z,51.32
2019-06-20T11:07:28.421Z,50.29
2019-06-20T11:08:28.396Z,49.23
2019-06-20T11:09:28.385Z,49.95
2019-06-20T11:10:28.374Z,49.80
2019-06-20T11:11:28.370Z,51.84
2019-06-20T11:12:39.987Z,51.84
2019-06-20T11:13:29.349Z,52.40
2019-06-20T11:14:28.330Z,51.67
2019-06-20T11:15:28.334Z,52.75
2019-06-20T11:16:28.320Z,53.84
2019-06-20T11:17:28.296Z,51.81
2019-06-20T11:18:28.294Z,51.00
2019-06-20T11:19:28.282Z,50.98
2019-06-20T11:20:28.272Z,49.75
2019-06-20T11:21:28.254Z,49.16
2019-06-20T11:22:28.253Z,49.38
2019-06-20T11:23:28.236Z,49.48
2019-06-20T11:24:28.226Z,49.46
2019-06-20T11:25:28.215Z,49.16
2019-06-20T11:26:28.205Z,50.95
2019-06-20T11:27:28.198Z,50.32
2019-06-20T11:28:28.187Z,49.60
2019-06-20T11:29:28.410Z,48.25
2019-06-20T11:30:28.177Z,48.08
2019-06-20T11:31:28.153Z,47.58
2019-06-20T11:32:28.176Z,47.64
2019-06-20T11:33:28.179Z,47.91
2019-06-20T11:34:28.136Z,47.25
2019-06-20T11:35:28.167Z,47.03
2019-06-20T11:36:28.135Z,45.47
2019-06-20T11:37:28.091Z,46.17
2019-06-20T11:38:28.083Z,45.78
2019-06-20T11:39:28.068Z,45.04
2019-06-20T11:40:28.058Z,46.78
2019-06-20T11:41:28.048Z,48.37
2019-06-20T11:42:28.040Z,49.60
2019-06-20T11:43:28.038Z,50.81
2019-06-20T11:44:28.050Z,50.51
2019-06-20T11:45:28.026Z,50.36
2019-06-20T11:46:28.055Z,51.28
2019-06-20T11:47:27.988Z,50.51
2019-06-20T11:48:27.981Z,51.64
2019-06-20T11:49:27.965Z,52.09
2019-06-20T11:50:27.955Z,52.29
2019-06-20T11:51:27.948Z,51.59
2019-06-20T11:52:27.943Z,53.28
2019-06-20T11:53:27.929Z,52.61
2019-06-20T11:54:27.917Z,54.59
2019-06-20T11:55:27.910Z,53.89
2019-06-20T11:56:27.895Z,52.91
2019-06-20T11:57:27.877Z,53.60
2019-06-20T11:58:27.876Z,51.94
2019-06-20T11:59:27.890Z,52.83
2019-06-20T12:00:27.865Z,53.63
2019-06-20T12:01:32.963Z,54.05
2019-06-20T12:02:28.833Z,53.75
2019-06-20T12:03:27.820Z,54.37
2019-06-20T12:04:27.812Z,54.07
2019-06-20T12:05:27.799Z,54.44
2019-06-20T12:06:27.788Z,52.73
2019-06-20T12:07:27.775Z,52.14
2019-06-20T12:08:27.765Z,52.04
2019-06-20T12:09:27.755Z,52.19
2019-06-20T12:10:27.750Z,49.87
2019-06-20T12:11:27.736Z,49.22
2019-06-20T12:12:27.721Z,46.50
2019-06-20T12:13:27.715Z,46.08
2019-06-20T12:14:27.713Z,45.68
2019-06-20T12:15:27.691Z,46.03
2019-06-20T12:16:27.678Z,44.64
2019-06-20T12:17:27.675Z,44.42
2019-06-20T12:18:27.665Z,44.12
2019-06-20T12:19:27.660Z,45.40
2019-06-20T12:20:27.643Z,44.89
2019-06-20T12:21:27.648Z,44.08
2019-06-20T12:22:27.647Z,43.49
2019-06-20T12:23:27.612Z,44.32
2019-06-20T12:24:27.613Z,46.03
2019-06-20T12:25:27.595Z,45.68
2019-06-20T12:26:27.581Z,48.29
2019-06-20T12:27:27.566Z,48.04
2019-06-20T12:28:27.566Z,49.08
2019-06-20T12:29:27.549Z,49.40
2019-06-20T12:30:27.536Z,50.98
2019-06-20T12:31:27.526Z,50.19
2019-06-20T12:32:27.524Z,50.26
2019-06-20T12:33:27.512Z,51.45
2019-06-20T12:34:27.492Z,50.95
2019-06-20T12:35:27.482Z,51.87
2019-06-20T12:36:27.482Z,51.97
2019-06-20T12:37:27.463Z,51.87
2019-06-20T12:38:27.451Z,51.67
2019-06-20T12:39:27.458Z,52.14
2019-06-20T12:40:27.430Z,53.03
2019-06-20T12:41:27.424Z,53.30
2019-06-20T12:42:27.414Z,51.82
2019-06-20T12:43:27.414Z,51.32
2019-06-20T12:44:27.390Z,50.09
2019-06-20T12:45:27.407Z,49.35
2019-06-20T12:46:27.372Z,47.92
2019-06-20T12:47:27.356Z,47.80
2019-06-20T12:48:27.349Z,47.36
2019-06-20T12:49:27.340Z,46.53
2019-06-20T12:50:27.336Z,45.92
2019-06-20T12:51:27.320Z,45.92
2019-06-20T12:52:27.307Z,46.02